Time;durP1;ratioP1;P1;durP2;ratioP2;P2;SDS_P1;SDS_P2;PMS_P1;PMS_P2;Temp;Humidity;BMP_temperature;BMP_pressure;BME280_temperature;BME280_humidity;BME280_pressure;Samples;Min_cycle;Max_cycle;Signal;HPM_P1;HPM_P2
2023/06/09 00:02:22;;;;;;;9.73;2.75;;;;;;;-142.75;100.00;76684.47;5025163;28;20057;-65
2023/06/09 00:04:48;;;;;;;7.20;2.80;;;;;;;-142.75;100.00;76688.41;5025202;28;20029;-64
2023/06/09 00:07:16;;;;;;;11.57;3.10;;;;;;;-142.75;100.00;76719.91;5025524;28;20021;-64
2023/06/09 00:09:45;;;;;;;10.10;2.80;;;;;;;-142.75;100.00;76696.28;5025247;28;20036;-65
2023/06/09 00:12:12;;;;;;;11.30;2.78;;;;;;;-142.75;100.00;76706.13;5024015;28;20029;-64
2023/06/09 00:14:37;;;;;;;10.38;2.75;;;;;;;-142.75;100.00;76710.06;5025425;28;20082;-64
2023/06/09 00:17:08;;;;;;;6.93;2.58;;;;;;;-142.75;100.00;76708.09;5025193;28;20107;-65
2023/06/09 00:19:35;;;;;;;9.68;2.90;;;;;;;-142.75;100.00;76712.03;5025153;28;20029;-65
2023/06/09 00:22:01;;;;;;;8.70;2.70;;;;;;;-142.75;100.00;76714.00;5039966;28;20124;-65
2023/06/09 00:24:26;;;;;;;9.93;2.60;;;;;;;-142.75;100.00;76717.94;5025068;28;20119;-64
2023/06/09 00:26:52;;;;;;;8.63;2.80;;;;;;;-142.75;100.00;76729.75;5024955;28;20033;-64
2023/06/09 00:29:20;;;;;;;12.85;2.83;;;;;;;-142.75;100.00;76714.00;5024896;28;20083;-64
2023/06/09 00:31:45;;;;;;;7.63;2.78;;;;;;;-142.75;100.00;76710.06;5025057;28;20032;-65
2023/06/09 00:34:11;;;;;;;11.32;3.08;;;;;;;-142.75;100.00;76719.91;5024804;28;20487;-65
2023/06/09 00:36:36;;;;;;;14.30;3.00;;;;;;;-142.75;100.00;76712.03;5024879;28;20101;-63
2023/06/09 00:39:03;;;;;;;10.50;3.10;;;;;;;-142.75;100.00;76719.91;5025137;28;20025;-65
2023/06/09 00:41:28;;;;;;;9.38;2.30;;;;;;;-142.75;100.00;76727.78;5024576;28;20090;-65
2023/06/09 00:43:55;;;;;;;7.43;2.47;;;;;;;-142.75;100.00;76731.72;5024972;28;20590;-65
2023/06/09 00:46:21;;;;;;;12.05;2.85;;;;;;;-142.75;100.00;76729.75;5024507;28;20029;-65
2023/06/09 00:48:47;;;;;;;9.45;2.80;;;;;;;-142.75;100.00;76739.59;5024808;28;20095;-64
2023/06/09 00:51:12;;;;;;;7.30;3.00;;;;;;;-142.75;100.00;76739.59;5024710;28;20026;-65
2023/06/09 00:53:38;;;;;;;6.95;3.08;;;;;;;-142.75;100.00;76733.69;5024816;28;20029;-65
2023/06/09 00:56:04;;;;;;;13.27;3.15;;;;;;;-142.75;100.00;76731.72;5024660;28;20080;-65
2023/06/09 00:58:30;;;;;;;13.27;3.08;;;;;;;-142.75;100.00;76739.59;5024957;28;20518;-65
2023/06/09 01:00:57;;;;;;;11.38;3.60;;;;;;;-142.75;100.00;76751.41;5024591;28;20052;-65
2023/06/09 01:03:24;;;;;;;6.28;2.70;;;;;;;-142.75;100.00;76755.34;5024585;28;20101;-64
2023/06/09 01:05:59;;;;;;;8.75;3.00;;;;;;;-142.75;100.00;76761.25;5024632;28;20022;-65
2023/06/09 01:08:34;;;;;;;11.65;2.60;;;;;;;-142.75;100.00;76747.47;5024727;28;20032;-64
2023/06/09 01:11:05;;;;;;;10.27;3.10;;;;;;;-142.75;100.00;76751.41;5024855;28;20486;-65
2023/06/09 01:13:39;;;;;;;8.82;2.75;;;;;;;-142.75;100.00;76765.19;5025077;28;20061;-65
2023/06/09 01:16:33;;;;;;;7.28;2.65;;;;;;;-142.75;100.00;76755.34;5024426;28;20071;-64
2023/06/09 01:19:01;;;;;;;7.65;2.55;;;;;;;-142.75;100.00;76778.97;4996890;28;20429;-64
2023/06/09 01:21:35;;;;;;;14.77;3.15;;;;;;;-142.75;100.00;76765.19;5024370;28;20364;-64
2023/06/09 01:24:09;;;;;;;9.30;3.05;;;;;;;-142.75;100.00;76769.13;5024696;28;20423;-65
2023/06/09 01:26:38;;;;;;;10.40;2.63;;;;;;;-142.75;100.00;76767.16;5024454;28;20079;-65
2023/06/09 01:29:04;;;;;;;8.55;2.90;;;;;;;-142.75;100.00;76777.00;5024382;28;20041;-64
2023/06/09 01:31:32;;;;;;;12.20;2.92;;;;;;;-142.75;100.00;76771.09;5022954;28;20418;-64
2023/06/09 01:33:59;;;;;;;8.88;2.47;;;;;;;-142.75;100.00;76771.09;5025061;28;20030;-65
2023/06/09 01:36:25;;;;;;;8.73;3.05;;;;;;;-142.75;100.00;76771.09;5027886;28;20091;-65
2023/06/09 01:38:50;;;;;;;8.63;2.70;;;;;;;-142.75;100.00;76775.03;5027953;28;20491;-65
2023/06/09 01:41:16;;;;;;;11.40;3.13;;;;;;;-142.75;100.00;76777.00;5027715;28;20036;-64
2023/06/09 01:43:41;;;;;;;10.15;2.83;;;;;;;-142.75;100.00;76778.97;5027477;28;20018;-65
2023/06/09 01:46:06;;;;;;;10.20;2.83;;;;;;;-142.75;100.00;76778.97;5027973;28;20431;-65
2023/06/09 01:48:54;;;;;;;8.05;2.92;;;;;;;-142.75;100.00;76786.84;5043425;28;20029;-65
2023/06/09 01:52:06;;;;;;;8.57;2.33;;;;;;;-142.75;100.00;76777.00;5027378;28;20025;-64
2023/06/09 01:54:37;;;;;;;18.35;3.30;;;;;;;-142.75;100.00;76796.69;5004961;28;20041;-65
2023/06/09 01:57:08;;;;;;;11.75;3.10;;;;;;;-142.75;100.00;76798.66;5025352;28;20040;-65
2023/06/09 01:59:55;;;;;;;9.98;3.03;;;;;;;-142.75;100.00;76796.69;5026602;28;20083;-65
2023/06/09 02:02:24;;;;;;;13.68;3.53;;;;;;;-142.75;100.00;76804.53;5027218;28;20094;-65
2023/06/09 02:04:53;;;;;;;7.65;3.45;;;;;;;-142.75;100.00;76792.75;5027341;28;20384;-65
2023/06/09 02:07:19;;;;;;;10.90;3.40;;;;;;;-142.75;100.00;76786.84;5027306;28;20025;-64
2023/06/09 02:09:46;;;;;;;7.43;2.60;;;;;;;-142.75;100.00;76786.84;5027516;28;20029;-65
2023/06/09 02:12:11;;;;;;;15.05;3.22;;;;;;;-142.75;100.00;76798.66;5027432;28;20032;-64
2023/06/09 02:14:37;;;;;;;10.68;2.50;;;;;;;-142.75;100.00;76798.66;5027336;28;20407;-65
2023/06/09 02:17:03;;;;;;;6.78;2.58;;;;;;;-142.75;100.00;76792.75;5027458;28;20174;-65
2023/06/09 02:19:30;;;;;;;10.55;3.17;;;;;;;-142.75;100.00;76794.69;5027458;28;20029;-65
2023/06/09 02:21:57;;;;;;;11.07;3.00;;;;;;;-142.75;100.00;76802.56;5026955;28;20550;-65
2023/06/09 02:24:27;;;;;;;15.18;3.63;;;;;;;-142.75;100.00;76806.50;5027176;28;20594;-65
2023/06/09 02:26:53;;;;;;;11.82;2.83;;;;;;;-142.75;100.00;76808.50;5027000;28;20446;-65
2023/06/09 02:29:18;;;;;;;12.45;2.67;;;;;;;-142.75;100.00;76804.53;5026943;28;20029;-64
2023/06/09 02:31:43;;;;;;;11.05;3.35;;;;;;;-142.75;100.00;76798.66;5027052;28;20025;-64
2023/06/09 02:34:10;;;;;;;12.23;3.00;;;;;;;-142.75;100.00;76800.63;5026792;28;20029;-64
2023/06/09 02:36:37;;;;;;;13.43;2.92;;;;;;;-142.75;100.00;76800.63;5026872;28;20200;-64
2023/06/09 02:39:03;;;;;;;17.80;3.58;;;;;;;-142.75;100.00;76810.44;5025754;28;20056;-65
2023/06/09 02:41:28;;;;;;;7.55;2.92;;;;;;;-142.75;100.00;76806.50;5026410;28;20155;-64
2023/06/09 02:43:54;;;;;;;13.27;3.28;;;;;;;-142.75;100.00;76806.50;5027032;28;20108;-65
2023/06/09 02:46:22;;;;;;;12.00;2.75;;;;;;;-142.75;100.00;76810.44;5024231;28;20021;-65
2023/06/09 02:48:48;;;;;;;8.88;3.58;;;;;;;-142.75;100.00;76822.25;5042207;28;20017;-64
2023/06/09 02:51:13;;;;;;;10.02;3.90;;;;;;;-142.75;100.00;76836.03;5026853;28;20075;-65
2023/06/09 02:53:38;;;;;;;15.85;3.55;;;;;;;-142.75;100.00;76841.94;5026581;28;20017;-65
2023/06/09 02:56:04;;;;;;;8.80;2.92;;;;;;;-142.75;100.00;76830.13;5026156;28;20516;-64
2023/06/09 02:58:30;;;;;;;11.50;3.28;;;;;;;-142.75;100.00;76814.38;5026546;28;20026;-65
2023/06/09 03:00:55;;;;;;;9.00;3.38;;;;;;;-142.75;100.00;76822.25;5026269;28;20075;-65
2023/06/09 03:03:20;;;;;;;12.52;3.30;;;;;;;-142.75;100.00;76808.50;5026375;28;20094;-65
2023/06/09 03:05:47;;;;;;;9.00;3.20;;;;;;;-142.75;100.00;76806.50;5026087;28;20096;-64
2023/06/09 03:08:12;;;;;;;6.78;3.20;;;;;;;-142.75;100.00;76804.53;5026566;28;20518;-64
2023/06/09 03:10:38;;;;;;;11.73;3.45;;;;;;;-142.75;100.00;76810.44;5026037;28;20018;-65
2023/06/09 03:13:03;;;;;;;13.88;3.30;;;;;;;-142.75;100.00;76808.50;5026191;28;20491;-64
2023/06/09 03:15:28;;;;;;;7.93;2.95;;;;;;;-142.75;100.00;76814.38;5026259;28;20372;-65
2023/06/09 03:17:54;;;;;;;8.77;3.30;;;;;;;-142.75;100.00;76826.19;5026310;28;20032;-64
2023/06/09 03:20:19;;;;;;;6.80;2.90;;;;;;;-142.75;100.00;76847.84;5026079;28;20040;-65
2023/06/09 03:22:45;;;;;;;12.27;3.60;;;;;;;-142.75;100.00;76869.50;5026171;28;20402;-65
2023/06/09 03:25:12;;;;;;;7.88;3.05;;;;;;;-142.75;100.00;76855.72;5024907;28;20041;-65
2023/06/09 03:27:37;;;;;;;11.95;2.72;;;;;;;-142.75;100.00;76849.81;5025786;28;20064;-64
2023/06/09 03:30:05;;;;;;;9.00;2.70;;;;;;;-142.75;100.00;76855.72;5025993;28;20061;-65
2023/06/09 03:32:31;;;;;;;13.07;3.30;;;;;;;-142.75;100.00;76857.69;5024612;28;20029;-65
2023/06/09 03:34:56;;;;;;;14.75;3.08;;;;;;;-142.75;100.00;76875.41;5025697;28;20026;-65
2023/06/09 03:37:21;;;;;;;8.77;2.97;;;;;;;-142.75;100.00;76865.56;5025781;28;20033;-64
2023/06/09 03:39:46;;;;;;;11.38;3.40;;;;;;;-142.75;100.00;76875.41;5025564;28;20104;-64
2023/06/09 03:42:12;;;;;;;10.93;4.45;;;;;;;-142.75;100.00;76893.13;5025788;28;20104;-65
2023/06/09 03:44:37;;;;;;;11.05;3.70;;;;;;;-142.75;100.00;76879.34;5026042;28;20014;-65
2023/06/09 03:47:02;;;;;;;12.40;2.92;;;;;;;-142.75;100.00;76879.34;5025401;28;20367;-65
2023/06/09 03:49:28;;;;;;;15.00;3.17;;;;;;;-142.75;100.00;76881.31;5025700;28;20033;-65
2023/06/09 03:51:53;;;;;;;11.70;3.28;;;;;;;-142.75;100.00;76879.34;5025347;28;20033;-65
2023/06/09 03:54:19;;;;;;;7.18;3.13;;;;;;;-142.75;100.00;76885.25;5025438;28;20108;-65
2023/06/09 03:56:44;;;;;;;12.75;3.33;;;;;;;-142.75;100.00;76916.75;5024964;28;20509;-65
2023/06/09 03:59:09;;;;;;;13.65;3.50;;;;;;;-142.75;100.00;76912.81;5026170;28;20167;-65
2023/06/09 04:01:35;;;;;;;8.95;3.70;;;;;;;-142.75;100.00;76914.78;5025142;28;20053;-65
2023/06/09 04:04:00;;;;;;;6.43;3.15;;;;;;;-142.75;100.00;76904.94;5025502;28;20025;-65
2023/06/09 04:06:26;;;;;;;8.30;2.88;;;;;;;-142.75;100.00;76912.81;5025019;28;20028;-65
2023/06/09 04:08:51;;;;;;;12.35;2.88;;;;;;;-142.75;100.00;76914.78;5025246;28;20030;-65
2023/06/09 04:11:17;;;;;;;6.70;3.00;;;;;;;-142.75;100.00;76922.66;5025038;28;20502;-64
2023/06/09 04:13:43;;;;;;;11.65;2.92;;;;;;;-142.75;100.00;76916.75;5025511;28;20021;-65
2023/06/09 04:16:08;;;;;;;12.30;3.15;;;;;;;-142.75;100.00;76916.75;5025306;28;20096;-65
2023/06/09 04:18:33;;;;;;;8.50;2.75;;;;;;;-142.75;100.00;76912.81;5025443;28;20601;-64
2023/06/09 04:20:59;;;;;;;9.48;3.03;;;;;;;-142.75;100.00;76916.75;5024959;28;20100;-65
2023/06/09 04:23:27;;;;;;;6.53;2.85;;;;;;;-142.75;100.00;76924.63;5025201;28;20037;-65
2023/06/09 04:25:53;;;;;;;7.43;3.28;;;;;;;-142.75;100.00;76924.63;5025038;28;20058;-65
2023/06/09 04:28:18;;;;;;;8.55;3.20;;;;;;;-142.75;100.00;76916.75;5025368;28;20029;-65
2023/06/09 04:30:44;;;;;;;10.27;3.60;;;;;;;-142.75;100.00;76916.75;5025306;28;20700;-65
2023/06/09 04:33:09;;;;;;;6.55;2.90;;;;;;;-142.75;100.00;76920.69;5025107;28;20021;-64
2023/06/09 04:35:34;;;;;;;10.55;3.13;;;;;;;-142.75;100.00;76922.66;5024547;28;20045;-64
2023/06/09 04:38:01;;;;;;;13.52;3.50;;;;;;;-142.75;100.00;76904.94;5025140;28;20474;-65
2023/06/09 04:40:29;;;;;;;13.27;2.92;;;;;;;-142.75;100.00;76889.19;5024539;28;20021;-64
2023/06/09 04:42:57;;;;;;;6.82;2.83;;;;;;;-142.75;100.00;76904.94;5024964;28;20025;-64
2023/06/09 04:45:27;;;;;;;11.57;3.13;;;;;;;-142.75;100.00;76893.13;5025119;28;20027;-64
2023/06/09 04:47:59;;;;;;;10.20;3.25;;;;;;;-142.75;100.00;76877.38;5025099;28;20043;-64
2023/06/09 04:50:29;;;;;;;9.15;3.25;;;;;;;-142.75;100.00;76881.31;5025007;28;20033;-64
2023/06/09 04:52:57;;;;;;;5.93;2.95;;;;;;;-142.75;100.00;76869.50;5024675;28;20087;-64
2023/06/09 04:55:25;;;;;;;8.82;3.55;;;;;;;-142.75;100.00;76865.56;5024484;28;20022;-63
2023/06/09 04:57:55;;;;;;;8.00;3.42;;;;;;;-142.75;100.00;76865.56;5024959;28;20112;-65
2023/06/09 05:00:20;;;;;;;7.20;3.25;;;;;;;-142.75;100.00;76857.69;5024646;28;20439;-64
2023/06/09 05:02:46;;;;;;;11.10;2.90;;;;;;;-142.75;100.00;76836.03;5023336;28;20040;-64
2023/06/09 05:05:12;;;;;;;10.13;3.35;;;;;;;-142.75;100.00;76838.00;5024068;28;20025;-64
2023/06/09 05:07:40;;;;;;;11.13;3.38;;;;;;;-142.75;100.00;76832.09;5023795;28;20080;-64
2023/06/09 05:10:09;;;;;;;8.80;3.63;;;;;;;-142.75;100.00;76822.25;5026669;28;20037;-65
2023/06/09 05:12:38;;;;;;;10.77;3.60;;;;;;;-142.75;100.00;76830.13;5026380;28;20021;-64
2023/06/09 05:15:04;;;;;;;10.52;3.80;;;;;;;-142.75;100.00;76822.25;5028370;28;20040;-65
2023/06/09 05:17:41;;;;;;;14.13;3.97;;;;;;;-142.75;100.00;76818.31;5026723;28;20021;-65
2023/06/09 05:20:11;;;;;;;9.05;3.50;;;;;;;-142.75;100.00;76800.63;5028531;28;20025;-65
2023/06/09 05:22:37;;;;;;;8.68;3.47;;;;;;;-142.75;100.00;76794.69;5028006;28;20029;-65
2023/06/09 05:25:03;;;;;;;10.05;4.18;;;;;;;-142.75;100.00;76788.81;5028341;28;20025;-65
2023/06/09 05:27:29;;;;;;;10.10;3.38;;;;;;;-142.75;100.00;76769.13;5028208;28;20033;-65
2023/06/09 05:29:55;;;;;;;9.95;3.70;;;;;;;-142.75;100.00;76763.22;5028185;28;20021;-65
2023/06/09 05:32:20;;;;;;;14.23;4.18;;;;;;;-142.75;100.00;76773.06;5027775;28;20028;-65
2023/06/09 05:34:45;;;;;;;15.35;4.07;;;;;;;-142.75;100.00;76755.34;5028152;28;20556;-64
2023/06/09 05:37:14;;;;;;;9.68;3.42;;;;;;;-142.75;100.00;76737.63;5028340;28;20026;-65
2023/06/09 05:39:42;;;;;;;15.27;4.28;;;;;;;-142.75;100.00;76727.78;5027939;28;20096;-66
2023/06/09 05:42:08;;;;;;;12.25;3.85;;;;;;;-142.75;100.00;76719.91;5027663;28;20487;-66
2023/06/09 05:44:33;;;;;;;11.15;4.20;;;;;;;-142.75;100.00;76692.34;5026740;28;20109;-66
2023/06/09 05:46:59;;;;;;;9.40;3.83;;;;;;;-142.75;100.00;76708.09;5026917;28;20104;-66
2023/06/09 05:49:24;;;;;;;13.10;4.13;;;;;;;-142.75;100.00;76702.19;5026045;28;20082;-66
2023/06/09 05:51:50;;;;;;;16.02;3.25;;;;;;;-142.75;100.00;76696.28;5026452;28;20037;-67
2023/06/09 05:54:16;;;;;;;9.68;3.83;;;;;;;-142.75;100.00;76672.66;5025819;28;20027;-66
2023/06/09 05:56:44;;;;;;;14.68;3.78;;;;;;;-142.75;100.00;76656.91;5025736;28;20017;-66
2023/06/09 05:59:13;;;;;;;10.23;3.72;;;;;;;-142.75;100.00;76664.78;5027382;28;20091;-67
2023/06/09 06:01:39;;;;;;;11.55;4.13;;;;;;;-142.75;100.00;76633.28;5025261;28;20033;-66
2023/06/09 06:04:04;;;;;;;17.92;3.67;;;;;;;-142.75;100.00;76635.25;5026109;28;20097;-65
2023/06/09 06:06:30;;;;;;;11.50;3.47;;;;;;;-142.75;100.00;76621.47;5027118;28;20699;-65
2023/06/09 06:08:55;;;;;;;12.50;3.83;;;;;;;-142.75;100.00;76611.63;5027518;28;20059;-65
2023/06/09 06:11:20;;;;;;;11.15;3.67;;;;;;;-142.75;100.00;76597.84;5025909;28;20116;-64
2023/06/09 06:13:46;;;;;;;10.85;4.25;;;;;;;-142.75;100.00;76578.16;5027522;28;20092;-64
2023/06/09 06:16:11;;;;;;;10.88;4.03;;;;;;;-142.75;100.00;76576.19;5025861;28;20108;-65
2023/06/09 06:18:36;;;;;;;14.05;4.05;;;;;;;-142.75;100.00;76546.66;5026214;28;20022;-64
2023/06/09 06:21:02;;;;;;;14.68;4.45;;;;;;;-142.75;100.00;76542.72;5026204;28;20028;-65
2023/06/09 06:23:27;;;;;;;11.80;3.95;;;;;;;-142.75;100.00;76519.13;5027003;28;20423;-64
2023/06/09 06:25:53;;;;;;;10.68;3.97;;;;;;;-142.75;100.00;76515.19;5026620;28;20727;-64
2023/06/09 06:28:19;;;;;;;9.63;3.72;;;;;;;-142.75;100.00;76487.63;5026885;28;20028;-64
2023/06/09 06:30:45;;;;;;;13.18;4.20;;;;;;;-142.75;100.00;76460.06;5026474;28;20036;-65
2023/06/09 06:33:11;;;;;;;12.43;3.95;;;;;;;-142.75;100.00;76477.78;5042021;28;20025;-65
2023/06/09 06:35:36;;;;;;;13.63;4.15;;;;;;;-142.75;100.00;76473.84;5026442;28;20108;-65
2023/06/09 06:38:01;;;;;;;13.38;4.50;;;;;;;-142.75;100.00;76458.09;5026437;28;20482;-65
2023/06/09 06:40:27;;;;;;;8.30;3.78;;;;;;;-142.75;100.00;76444.31;5026094;28;20022;-65
2023/06/09 06:42:52;;;;;;;9.40;4.03;;;;;;;-142.75;100.00;76426.59;5026468;28;20029;-66
2023/06/09 06:45:19;;;;;;;10.65;3.80;;;;;;;-142.75;100.00;76412.81;5026700;28;20045;-65
2023/06/09 06:47:45;;;;;;;11.57;4.35;;;;;;;-142.75;100.00;76454.16;5026742;28;20382;-65
2023/06/09 06:50:13;;;;;;;9.98;4.00;;;;;;;-142.75;100.00;76402.97;5024949;28;20060;-65
2023/06/09 06:52:39;;;;;;;13.95;5.45;;;;;;;-142.75;100.00;76381.31;5024975;28;20044;-65
2023/06/09 06:55:07;;;;;;;16.33;5.45;;;;;;;-142.75;100.00;76359.66;5025186;28;20033;-65
2023/06/09 06:57:33;;;;;;;13.80;4.32;;;;;;;-142.75;100.00;76341.97;5023654;28;20086;-65
2023/06/09 06:59:58;;;;;;;10.75;4.80;;;;;;;-142.75;100.00;76322.28;5024082;28;20055;-65
2023/06/09 07:02:24;;;;;;;12.13;4.18;;;;;;;-142.75;100.00;76304.56;5024260;28;20372;-65
2023/06/09 07:04:50;;;;;;;10.93;3.95;;;;;;;-142.75;100.00;76278.97;5023033;28;20113;-65
2023/06/09 07:07:16;;;;;;;13.00;4.40;;;;;;;-142.75;100.00;76265.19;5025152;28;20025;-65
2023/06/09 07:09:41;;;;;;;13.02;4.03;;;;;;;-142.75;100.00;76267.16;5025516;28;20440;-65
2023/06/09 07:12:07;;;;;;;12.65;5.13;;;;;;;-142.75;100.00;76259.28;5025360;28;20043;-65
2023/06/09 07:14:34;;;;;;;13.50;5.43;;;;;;;-142.75;100.00;76253.38;5025569;28;20025;-65
2023/06/09 07:16:59;;;;;;;13.98;5.30;;;;;;;-142.75;100.00;76229.75;5025643;28;20036;-66
2023/06/09 07:19:25;;;;;;;12.10;4.45;;;;;;;-142.75;100.00;76206.13;5025802;28;20033;-63
2023/06/09 07:21:50;;;;;;;11.40;5.10;;;;;;;-142.75;100.00;76180.56;5024918;28;20037;-63
2023/06/09 07:24:15;;;;;;;12.00;5.40;;;;;;;-142.75;100.00;76156.94;5025007;28;20030;-63
2023/06/09 07:26:41;;;;;;;13.88;5.05;;;;;;;-142.75;100.00;76156.94;5024997;28;20036;-64
2023/06/09 07:29:06;;;;;;;12.77;5.35;;;;;;;-142.75;100.00;76143.16;5025162;28;20024;-62
2023/06/09 07:31:31;;;;;;;13.23;5.18;;;;;;;-142.75;100.00;76131.34;5024068;28;20044;-63
2023/06/09 07:33:56;;;;;;;9.30;5.03;;;;;;;-142.75;100.00;76109.69;5024857;28;20029;-64
2023/06/09 07:36:22;;;;;;;8.77;4.85;;;;;;;-142.75;100.00;76105.75;5024667;28;20087;-64
2023/06/09 07:38:47;;;;;;;11.00;5.40;;;;;;;-142.75;100.00;76117.56;5024594;28;20037;-64
2023/06/09 07:41:13;;;;;;;11.00;5.30;;;;;;;-142.75;100.00;76105.75;5024432;28;20037;-64
2023/06/09 07:43:39;;;;;;;15.43;5.80;;;;;;;-142.75;100.00;76101.81;5024223;28;20102;-63
2023/06/09 07:46:04;;;;;;;12.10;6.05;;;;;;;-142.75;100.00;76062.47;5025165;28;20111;-63
2023/06/09 07:48:29;;;;;;;12.88;5.63;;;;;;;-142.75;100.00;76062.47;5024600;28;20024;-64
2023/06/09 07:50:56;;;;;;;10.38;5.82;;;;;;;-142.75;100.00;76068.38;5024313;28;20502;-63
2023/06/09 07:53:21;;;;;;;16.67;6.20;;;;;;;-142.75;100.00;76034.91;5024676;28;20025;-63
2023/06/09 07:55:47;;;;;;;14.95;5.95;;;;;;;-142.75;100.00;76009.31;5024057;28;20079;-63
2023/06/09 07:58:12;;;;;;;18.48;6.60;;;;;;;-142.75;100.00;75999.47;5024736;28;20117;-63
2023/06/09 08:00:37;;;;;;;13.52;6.00;;;;;;;-142.75;100.00;75983.72;5024345;28;20026;-63
2023/06/09 08:03:03;;;;;;;10.60;5.30;;;;;;;-142.75;100.00;75966.00;5024306;28;20107;-64
2023/06/09 08:05:30;;;;;;;18.15;6.20;;;;;;;-142.75;100.00;75969.94;5024030;28;20032;-63
2023/06/09 08:07:56;;;;;;;13.82;6.13;;;;;;;-142.75;100.00;75938.47;5024395;28;20517;-60
2023/06/09 08:10:22;;;;;;;14.38;6.30;;;;;;;-142.75;100.00;75928.63;5024377;28;20022;-64
2023/06/09 08:12:48;;;;;;;17.75;6.15;;;;;;;-142.75;100.00;75930.59;5024275;28;20025;-64
2023/06/09 08:15:14;;;;;;;12.25;6.18;;;;;;;-142.75;100.00;75903.03;5024644;28;20029;-64
2023/06/09 08:17:39;;;;;;;13.27;6.45;;;;;;;-142.75;100.00;75903.03;5024065;28;20021;-65
2023/06/09 08:20:05;;;;;;;11.57;6.03;;;;;;;-142.75;100.00;75867.59;5024220;28;20087;-65
2023/06/09 08:22:31;;;;;;;15.65;6.07;;;;;;;-142.75;100.00;75849.91;5023729;28;20036;-65
2023/06/09 08:24:56;;;;;;;13.98;6.10;;;;;;;-142.75;100.00;75826.28;5022118;28;20029;-66
2023/06/09 08:27:22;;;;;;;14.50;6.05;;;;;;;-142.75;100.00;75810.53;5023796;28;20025;-67
2023/06/09 08:29:49;;;;;;;12.32;6.90;;;;;;;-142.75;100.00;75790.84;5023506;28;20072;-66
2023/06/09 08:32:15;;;;;;;17.23;5.97;;;;;;;-142.75;100.00;75781.00;5023907;28;20109;-66
2023/06/09 08:34:40;;;;;;;14.60;7.13;;;;;;;-142.75;98.67;75749.53;5022376;28;20702;-66
2023/06/09 08:37:07;;;;;;;14.40;6.25;;;;;;;-142.75;100.00;75712.13;5022608;28;20029;-67
2023/06/09 08:39:32;;;;;;;15.50;6.40;;;;;;;-142.75;96.75;75694.41;5024092;28;20027;-67
2023/06/09 08:42:01;;;;;;;28.23;7.53;;;;;;;-142.75;100.00;75666.88;5023083;28;20022;-66
2023/06/09 08:44:28;;;;;;;12.68;6.80;;;;;;;-142.75;96.33;75659.00;5026988;28;20033;-66
2023/06/09 08:47:00;;;;;;;13.32;6.72;;;;;;;-142.75;92.50;75655.06;5027976;28;20136;-66
2023/06/09 08:49:26;;;;;;;36.97;7.85;;;;;;;-142.75;94.14;75682.59;5027786;28;20025;-63
2023/06/09 08:51:52;;;;;;;14.25;7.20;;;;;;;-142.75;92.51;75659.00;5027940;28;20060;-62
2023/06/09 08:54:17;;;;;;;14.57;7.88;;;;;;;-142.75;91.52;75682.59;5026443;28;20034;-62
2023/06/09 08:56:43;;;;;;;11.00;7.00;;;;;;;-142.75;92.17;75704.25;5027664;28;20029;-62
2023/06/09 08:59:09;;;;;;;9.88;6.40;;;;;;;-142.75;97.70;75704.25;5027996;28;20682;-62
2023/06/09 09:01:36;;;;;;;14.93;6.88;;;;;;;-142.75;97.35;75668.84;5024743;28;20501;-63
2023/06/09 09:04:02;;;;;;;13.43;7.80;;;;;;;-142.75;92.35;75657.03;5027510;28;20556;-62
2023/06/09 09:06:27;;;;;;;12.98;7.50;;;;;;;-142.75;95.85;75627.50;5027295;28;20010;-61
2023/06/09 09:08:52;;;;;;;15.13;8.02;;;;;;;-142.75;92.57;75625.53;5027501;28;20098;-62
2023/06/09 09:11:18;;;;;;;13.68;7.60;;;;;;;-142.75;95.29;75625.53;5027176;28;20371;-61
2023/06/09 09:13:47;;;;;;;12.18;6.78;;;;;;;-142.75;94.17;75588.16;5027897;28;20052;-61
2023/06/09 09:16:16;;;;;;;14.60;6.63;;;;;;;-142.75;99.07;75570.44;5028083;28;20108;-62
2023/06/09 09:18:48;;;;;;;9.75;6.65;;;;;;;-142.75;92.64;75554.69;5027915;28;20496;-62
2023/06/09 09:21:21;;;;;;;14.65;7.35;;;;;;;-142.75;92.95;75556.66;5027679;28;20022;-62
2023/06/09 09:23:59;;;;;;;15.85;7.28;;;;;;;-142.75;90.82;75529.09;5027455;28;20032;-62
2023/06/09 09:26:28;;;;;;;15.82;7.13;;;;;;;-142.75;93.08;75511.41;5027034;28;20027;-62
2023/06/09 09:28:56;;;;;;;13.63;7.97;;;;;;;-142.75;88.70;75503.53;5026857;28;20075;-61
2023/06/09 09:31:31;;;;;;;14.93;6.95;;;;;;;-142.75;91.11;75483.84;5027103;28;20082;-60
2023/06/09 09:33:56;;;;;;;17.08;7.07;;;;;;;-142.75;90.40;75456.28;5027843;28;20029;-61
2023/06/09 09:36:22;;;;;;;17.95;7.63;;;;;;;-142.75;91.95;75440.53;5027971;28;20568;-62
2023/06/09 09:38:47;;;;;;;14.65;8.15;;;;;;;-142.75;90.68;75411.03;5028176;28;20028;-63
2023/06/09 09:41:13;;;;;;;16.38;7.82;;;;;;;-142.75;88.48;75403.16;5029199;28;20087;-63
2023/06/09 09:43:39;;;;;;;16.65;7.45;;;;;;;-142.75;89.94;75387.41;5029126;28;20098;-62
2023/06/09 09:46:06;;;;;;;14.82;7.60;;;;;;;-142.75;86.76;75377.56;5029120;28;20108;-64
2023/06/09 09:48:35;;;;;;;12.18;7.47;;;;;;;-142.75;86.15;75361.84;5028830;28;20515;-63
2023/06/09 09:51:00;;;;;;;13.70;8.05;;;;;;;-142.75;86.41;75373.63;5028964;28;20440;-64
2023/06/09 09:53:26;;;;;;;16.40;7.88;;;;;;;-142.75;87.08;75393.31;5028880;28;20025;-63
2023/06/09 09:55:57;;;;;;;17.88;8.02;;;;;;;-142.75;87.87;75365.75;5027990;28;20127;-64
2023/06/09 09:58:36;;;;;;;16.23;7.80;;;;;;;-142.75;87.35;75334.28;5047762;22;20473;-64
2023/06/09 10:01:07;;;;;;;12.93;7.38;;;;;;;-142.75;88.79;75298.84;5046004;28;20040;-63
2023/06/09 10:03:34;;;;;;;15.30;7.75;;;;;;;-142.75;82.54;75310.66;5047824;28;20029;-62
2023/06/09 10:06:03;;;;;;;13.75;7.47;;;;;;;-142.75;83.27;75302.78;5046875;28;20029;-61
2023/06/09 10:08:30;;;;;;;15.20;7.75;;;;;;;-142.75;89.54;75298.84;5041813;28;20035;-64
2023/06/09 10:10:57;;;;;;;14.50;7.80;;;;;;;-142.75;85.01;75292.97;5024341;28;20537;-64
2023/06/09 10:13:26;;;;;;;13.88;7.07;;;;;;;-142.75;85.07;75247.69;5028040;28;20112;-63
2023/06/09 10:15:52;;;;;;;13.23;7.40;;;;;;;-142.75;84.83;75224.09;5026484;28;20071;-64
2023/06/09 10:18:19;;;;;;;10.95;7.53;;;;;;;-142.75;82.39;75220.16;5025241;28;20100;-64
2023/06/09 10:20:45;;;;;;;13.55;7.47;;;;;;;-142.75;82.16;75251.63;5025701;28;20033;-64
2023/06/09 10:23:10;;;;;;;15.35;8.73;;;;;;;-142.75;81.13;75283.13;5025465;28;20040;-62
2023/06/09 10:25:36;;;;;;;12.50;8.20;;;;;;;-142.75;82.42;75273.28;5028094;28;20041;-64
2023/06/09 10:28:02;;;;;;;12.57;7.20;;;;;;;-142.75;88.06;75269.34;5025619;28;20036;-64
2023/06/09 10:30:27;;;;;;;15.45;7.10;;;;;;;-142.75;81.33;75261.47;5025105;28;20032;-64
2023/06/09 10:33:04;;;;;;;12.85;7.80;;;;;;;-142.75;81.51;75229.97;5027873;28;20410;-64
2023/06/09 10:35:32;;;;;;;12.95;7.63;;;;;;;-142.75;83.56;75206.38;5026048;28;20033;-64
2023/06/09 10:37:59;;;;;;;11.90;6.78;;;;;;;-142.75;79.90;75200.47;5043496;28;20021;-64
2023/06/09 10:40:41;;;;;;;11.70;7.60;;;;;;;-142.75;78.96;75192.59;5028086;28;20029;-64
2023/06/09 10:43:29;;;;;;;12.35;7.18;;;;;;;-142.75;81.28;75172.91;5028172;28;20025;-64
2023/06/09 10:45:56;;;;;;;15.82;7.47;;;;;;;-142.75;77.93;75190.63;5027508;28;20033;-63
2023/06/09 10:48:48;;;;;;;9.98;7.10;;;;;;;-142.75;80.66;75200.47;5026422;28;20084;-63
2023/06/09 10:51:31;;;;;;;12.80;7.95;;;;;;;-142.75;80.26;75174.88;5026521;28;20167;-64
2023/06/09 10:54:06;;;;;;;14.30;7.72;;;;;;;-142.75;78.24;75161.13;5028076;28;20029;-64
2023/06/09 10:56:34;;;;;;;11.75;7.32;;;;;;;-142.75;81.42;75119.78;5027614;28;20060;-64
2023/06/09 10:59:00;;;;;;;13.30;7.68;;;;;;;-142.75;80.29;75115.84;5027434;28;20041;-64
2023/06/09 11:01:25;;;;;;;12.15;6.93;;;;;;;-142.75;79.78;75109.94;5026225;28;20371;-63
2023/06/09 11:03:50;;;;;;;9.90;5.90;;;;;;;-142.75;78.30;75088.31;5027741;28;20588;-64
2023/06/09 11:06:16;;;;;;;10.82;7.00;;;;;;;-142.75;77.16;75050.91;5027101;28;20101;-62